OIMC  Sarakhs  Airport

Sarakhs, Iran

Add Bookmark
ICAO OIMC
IATA CKT
Type Airport
Status Operational
Latitude
36° 30' 4" N
36.501202
Longitude
61° 3' 53" E
61.064899
Local (GMT +3.5 ) UTC
Oct 1, 2016 12:08 pm Oct 1, 2016 08:38
Sunrise-Sunset Local UTC
Begin Civil Twilight 04:54 am 01:24
Sunrise 05:20 am 01:50
Sunset 05:10 pm 13:40
End Civil Twilight 05:35 pm 14:05
VFR
VFR
MVFR
MVFR
IFR
IFR
LIFR
LIFR
Unknown
Unavailable

Current Weather

METAR Observed VFR
OIMC 010800Z 28016KT 9999 SCT035 OVC100 20/07 Q1024 Sat, Oct 1, 2016 @ 08:00 UTC
(38 Minutes ago)
Visual Flight Rules
Wind Visibility Clouds Conditions
280° at 16 knots (30 kph) 10 km or more
  • Scattered at 3,500 ft AGL
  • Overcast at 10,000 ft AGL
  • No significant weather
Temperatures Readings Precipitation
Current Temp
20°C
68°F
Dewpoint
7°C
45°F
Humidity 43%
Altimeter 30.24" Hg
Sea Level Pressure 1,024 mb
Field Elevation
288 m
945 ft
None Recorded
-
-

CheckWX.com is intended as a tool to help pilots better visualize weather data. It is not intended as a substitute for an official weather briefing obtained from a Flight Service Station. CheckWX.com does not meet the FAA requirements for an official pre-flight weather briefing. Therefore, it's important that pilots still call and obtain an official FSS pre-flight weather briefing.

© 2007-2016 CheckWX.com
08:38:28 UTC